Site contains unofficial IBTrACS data. Visit the IBTrACS Website to access archived data.

1968 NOT_NAMED (1968018S12132)


IBTrACS version v04r00. Visit IBTrACS website for data access.
Please direct all questions to the IBTrACS Q and A forum

Storm track - Intensity - Wind Radii - Intensity Data - Source Data - All data

Summary Information

Storm ID 1968018S12132
Start Jan 17 22Z
Landfall Jan 18 12Z
End Jan 19 22Z
ATCF IDs ,SH151968
Track status Best track data.

Storm track plot

Map of storm track

Intensity plots

No Intensity information for this storm


Radial wind information

No radial wind information for this storm


Position and Intensity Table

BASIN ISO_TIME_________ NATURE LAT LON
degrees north degrees east
SI 1968-01-17 22:00:00 NR -11.90 132.10
SI 1968-01-18 00:00:00 TS -11.92 131.99
SI 03:00:00 TS -11.97 131.79
SI 06:00:00 TS -12.01 131.61
SI 09:00:00 TS -12.06 131.45
SI 10:00:00 TS -12.07 131.40
SI 12:00:00 TS -12.11 131.30
SI 15:00:00 TS -12.19 131.15
SI 18:00:00 TS -12.29 131.01
SI 21:00:00 TS -12.38 130.86
SI 22:00:00 TS -12.42 130.81
SI 1968-01-19 00:00:00 TS -12.50 130.69
SI 03:00:00 TS -12.64 130.46
SI 06:00:00 TS -12.81 130.21
SI 09:00:00 TS -13.01 129.96
SI 10:00:00 TS -13.07 129.88
SI 12:00:00 TS -13.21 129.71
SI 15:00:00 TS -13.42 129.45
SI 18:00:00 TS -13.62 129.19
SI 21:00:00 NR -13.83 128.89
SI 22:00:00 NR -13.90 128.80

Source Information

Agency Information
USA bsh151968.txt
TOKYO
CMA
HKO
NEWDELHI
REUNION
BOM
NADI
WELLINGTON
DS824 s_hem.dat:1052:15S
TD9636 cons_worldwide_trop_cyclone_18710101-19891231-006:Line=7891
TD9635
NEUMANN
MLC

All available IBTrACS Data

SEASON BASIN SUBBASIN ISO_TIME_________ NATURE LAT LON DIST2LAND LANDFALL IFLAG USA AGENCY USA ATCF_ID USA LAT USA LON USA SSHS DS824 LAT DS824 LON DS824 STAGE TD9636 LAT TD9636 LON TD9636 STAGE STORM SPEED STORM DIR
Year degrees north degrees east km km degrees north degrees east 1 degrees north degrees east degrees north degrees east kts degrees
1968 SI WA 1968-01-17 22:00:00 NR -11.90 132.10 44 44 __________O___ -1 -11.90 132.10 1 3 261
1968 SI WA 1968-01-18 00:00:00 TS -11.92 131.99 44 33 O________OP___ jtwc_sh SH151968 -11.90 132.00 -1 -11.90 132.00 TC -11.93 131.98 1 4 258
1968 SI WA 03:00:00 TS -11.97 131.79 33 33 P________PP___ SH151968 -11.95 131.79 -1 -11.95 131.79 TC -11.98 131.79 1 4 255
1968 SI WA 06:00:00 TS -12.01 131.61 33 10 O________OP___ jtwc_sh SH151968 -12.00 131.60 -1 -12.00 131.60 TC -12.03 131.62 1 4 255
1968 SI WA 09:00:00 TS -12.06 131.45 10 10 P________PP___ SH151968 -12.04 131.44 -1 -12.04 131.44 TC -12.08 131.45 1 3 254
1968 SI WA 10:00:00 TS -12.07 131.40 10 0 P________PO___ SH151968 -12.06 131.39 -1 -12.06 131.39 TC -12.10 131.40 1 3 249
1968 SI WA 12:00:00 TS -12.11 131.30 0 0 O________OP___ jtwc_sh SH151968 -12.10 131.30 -1 -12.10 131.30 TC -12.13 131.30 1 3 243
1968 SI WA 15:00:00 TS -12.19 131.15 0 0 P________PP___ SH151968 -12.19 131.15 -1 -12.19 131.15 TC -12.19 131.16 1 3 239
1968 SI WA 18:00:00 TS -12.29 131.01 0 0 O________OP___ jtwc_sh SH151968 -12.30 131.00 -1 -12.30 131.00 TC -12.26 131.02 1 3 236
1968 SI WA 21:00:00 TS -12.38 130.86 0 0 P________PP___ SH151968 -12.39 130.86 -1 -12.39 130.86 TC -12.36 130.86 1 3 236
1968 SI WA 22:00:00 TS -12.42 130.81 0 0 P________PO___ SH151968 -12.43 130.82 -1 -12.43 130.82 TC -12.40 130.80 1 4 235
1968 SI WA 1968-01-19 00:00:00 TS -12.50 130.69 0 0 O________OP___ jtwc_sh SH151968 -12.50 130.70 -1 -12.50 130.70 TC -12.49 130.67 1 5 236
1968 SI WA 03:00:00 TS -12.64 130.46 10 0 P________PP___ SH151968 -12.64 130.46 -1 -12.64 130.46 TC -12.65 130.46 1 6 236
1968 SI WA 06:00:00 TS -12.81 130.21 15 10 O________OP___ jtwc_sh SH151968 -12.80 130.20 -1 -12.80 130.20 TC -12.84 130.23 1 6 233
1968 SI WA 09:00:00 TS -13.01 129.96 10 21 P________PP___ SH151968 -12.99 129.95 -1 -12.99 129.95 TC -13.03 129.99 1 6 231
1968 SI WA 10:00:00 TS -13.07 129.88 21 21 P________PO___ SH151968 -13.06 129.87 -1 -13.06 129.87 TC -13.10 129.90 1 6 229
1968 SI WA 12:00:00 TS -13.21 129.71 35 24 O________OP___ jtwc_sh SH151968 -13.20 129.70 -1 -13.20 129.70 TC -13.23 129.73 1 6 230
1968 SI WA 15:00:00 TS -13.42 129.45 34 43 P________PP___ SH151968 -13.40 129.45 -1 -13.40 129.45 TC -13.43 129.45 1 7 231
1968 SI WA 18:00:00 TS -13.62 129.19 63 63 O________OP___ jtwc_sh SH151968 -13.60 129.20 -1 -13.60 129.20 TC -13.63 129.18 1 7 233
1968 SI WA 21:00:00 NR -13.83 128.89 77 70 __________P___ SH151968 -1 TC -13.83 128.89 1 7 233
1968 SI WA 22:00:00 NR -13.90 128.80 78 __________O___ SH151968 -1 TC -13.90 128.80 1 7 234